Time;durP1;ratioP1;P1;durP2;ratioP2;P2;SDS_P1;SDS_P2;PMS_P1;PMS_P2;Temp;Humidity;BMP_temperature;BMP_pressure;BME280_temperature;BME280_humidity;BME280_pressure;Samples;Min_cycle;Max_cycle;Signal;HPM_P1;HPM_P2
2023/01/16 00:01:27;;;;;;;;;;;;;;;;;;5052972;28;1815;-38
2023/01/16 00:03:55;;;;;;;;;;;;;;;;;;5052801;28;1850;-38
2023/01/16 00:06:22;;;;;;;;;;;;;;;;;;5052572;28;2082;-38
2023/01/16 00:08:49;;;;;;;;;;;;;;;;;;5052579;28;1638;-39
2023/01/16 00:11:19;;;;;;;;;;;;;;;;;;5052415;28;1598;-37
2023/01/16 00:13:46;;;;;;;;;;;;;;;;;;5052307;28;1492;-39
2023/01/16 00:16:13;;;;;;;;;;;;;;;;;;5052376;28;1976;-38
2023/01/16 00:18:41;;;;;;;;;;;;;;;;;;5052244;28;1634;-38
2023/01/16 00:21:08;;;;;;;;;;;;;;;;;;5052450;28;1981;-37
2023/01/16 00:23:36;;;;;;;;;;;;;;;;;;5052133;28;1655;-38
2023/01/16 00:26:06;;;;;;;;;;;;;;;;;;5052356;28;1826;-37
2023/01/16 00:28:36;;;;;;;;;;;;;;;;;;5071751;28;2112;-38
2023/01/16 00:31:06;;;;;;;;;;;;;;;;;;5072040;28;1560;-38
2023/01/16 00:33:34;;;;;;;;;;;;;;;;;;5071950;28;1723;-39
2023/01/16 00:36:01;;;;;;;;;;;;;;;;;;5072403;28;2239;-38
2023/01/16 00:38:29;;;;;;;;;;;;;;;;;;5072188;28;1006;-37
2023/01/16 00:40:56;;;;;;;;;;;;;;;;;;5071925;28;1981;-37
2023/01/16 00:43:23;;;;;;;;;;;;;;;;;;5072042;28;2017;-38
2023/01/16 00:45:51;;;;;;;;;;;;;;;;;;5071956;28;1439;-38
2023/01/16 00:48:18;;;;;;;;;;;;;;;;;;5071590;28;1939;-37
2023/01/16 00:50:45;;;;;;;;;;;;;;;;;;5071733;28;1998;-39
2023/01/16 00:53:12;;;;;;;;;;;;;;;;;;5071539;28;1611;-38
2023/01/16 00:55:41;;;;;;;;;;;;;;;;;;5071197;28;1925;-38
2023/01/16 00:58:09;;;;;;;;;;;;;;;;;;5071685;28;1733;-38
2023/01/16 01:00:37;;;;;;;;;;;;;;;;;;5071564;28;2032;-38
2023/01/16 01:03:05;;;;;;;;;;;;;;;;;;5071493;28;1890;-38
2023/01/16 01:05:34;;;;;;;;;;;;;;;;;;5054258;28;2338;-38
2023/01/16 01:08:04;;;;;;;;;;;;;;;;;;5071517;28;1572;-37
2023/01/16 01:10:32;;;;;;;;;;;;;;;;;;5071685;28;1486;-38
2023/01/16 01:12:59;;;;;;;;;;;;;;;;;;5071502;28;1676;-38
2023/01/16 01:15:26;;;;;;;;;;;;;;;;;;5071231;28;2112;-38
2023/01/16 01:17:53;;;;;;;;;;;;;;;;;;5071335;28;1760;-37
2023/01/16 01:20:20;;;;;;;;;;;;;;;;;;5071436;28;2065;-38
2023/01/16 01:22:47;;;;;;;;;;;;;;;;;;5071391;28;1337;-37
2023/01/16 01:25:14;;;;;;;;;;;;;;;;;;5071124;28;2185;-40
2023/01/16 01:27:42;;;;;;;;;;;;;;;;;;5058327;28;1784;-37
2023/01/16 01:30:09;;;;;;;;;;;;;;;;;;5050952;28;2052;-39
2023/01/16 01:32:38;;;;;;;;;;;;;;;;;;5051177;28;1978;-38
2023/01/16 01:35:06;;;;;;;;;;;;;;;;;;5051405;28;1660;-38
2023/01/16 01:37:34;;;;;;;;;;;;;;;;;;5051162;28;1911;-38
2023/01/16 01:40:04;;;;;;;;;;;;;;;;;;5051378;28;1796;-38
2023/01/16 01:42:45;;;;;;;;;;;;;;;;;;5050850;28;1317;-38
2023/01/16 01:45:18;;;;;;;;;;;;;;;;;;5051162;28;1274;-39
2023/01/16 01:48:04;;;;;;;;;;;;;;;;;;5050934;28;1906;-38
2023/01/16 01:50:34;;;;;;;;;;;;;;;;;;5051511;28;1681;-37
2023/01/16 01:53:03;;;;;;;;;;;;;;;;;;5050801;28;1872;-37
2023/01/16 01:55:30;;;;;;;;;;;;;;;;;;5050934;28;1979;-37
2023/01/16 01:57:59;;;;;;;;;;;;;;;;;;5050837;28;1975;-38
2023/01/16 02:00:27;;;;;;;;;;;;;;;;;;5050881;28;2115;-39
2023/01/16 02:03:02;;;;;;;;;;;;;;;;;;5050839;28;1384;-38
2023/01/16 02:05:33;;;;;;;;;;;;;;;;;;5050691;28;1920;-38
2023/01/16 02:08:04;;;;;;;;;;;;;;;;;;5050945;28;1725;-38
2023/01/16 02:10:32;;;;;;;;;;;;;;;;;;5050822;28;1986;-38
2023/01/16 02:13:00;;;;;;;;;;;;;;;;;;5051189;28;1901;-40
2023/01/16 02:15:27;;;;;;;;;;;;;;;;;;5050756;28;1997;-38
2023/01/16 02:21:10;;;;;;;;;;;;;;;;;;5050668;28;1720;-37
2023/01/16 02:23:56;;;;;;;;;;;;;;;;;;5050803;28;1579;-38
2023/01/16 02:26:26;;;;;;;;;;;;;;;;;;5050371;28;1693;-38
2023/01/16 02:29:04;;;;;;;;;;;;;;;;;;5050664;28;2012;-37
2023/01/16 02:31:47;;;;;;;;;;;;;;;;;;5050522;28;1963;-38
2023/01/16 02:34:23;;;;;;;;;;;;;;;;;;5050555;28;1824;-37
2023/01/16 02:37:02;;;;;;;;;;;;;;;;;;5050480;28;1906;-38
2023/01/16 02:39:43;;;;;;;;;;;;;;;;;;5054327;28;1329;-38
2023/01/16 02:42:16;;;;;;;;;;;;;;;;;;5054378;28;1713;-38
2023/01/16 02:44:51;;;;;;;;;;;;;;;;;;5054220;28;2065;-38
2023/01/16 02:47:18;;;;;;;;;;;;;;;;;;5057613;28;1580;-37
2023/01/16 02:50:14;;;;;;;;;;;;;;;;;;5074178;28;1919;-38
2023/01/16 02:52:59;;;;;;;;;;;;;;;;;;4986325;28;1426;-38
2023/01/16 02:55:31;;;;;;;;;;;;;;;;;;5073814;28;1921;-38
2023/01/16 02:58:00;;;;;;;;;;;;;;;;;;5073964;28;1988;-38
2023/01/16 03:00:27;;;;;;;;;;;;;;;;;;5073905;28;2107;-38
2023/01/16 03:02:55;;;;;;;;;;;;;;;;;;5073965;28;1631;-38
2023/01/16 03:05:22;;;;;;;;;;;;;;;;;;5073923;28;1470;-37
2023/01/16 03:07:53;;;;;;;;;;;;;;;;;;5073566;28;1944;-38
2023/01/16 03:10:23;;;;;;;;;;;;;;;;;;5073809;28;1702;-38
2023/01/16 03:13:16;;;;;;;;;;;;;;;;;;5073629;28;2139;-38
2023/01/16 03:15:58;;;;;;;;;;;;;;;;;;5035973;28;1425;-37
2023/01/16 03:18:25;;;;;;;;;;;;;;;;;;5073531;28;1629;-38
2023/01/16 03:21:04;;;;;;;;;;;;;;;;;;5073739;28;1042;-37
2023/01/16 03:23:37;;;;;;;;;;;;;;;;;;5073638;28;1440;-37
2023/01/16 03:26:09;;;;;;;;;;;;;;;;;;5073529;28;1679;-38
2023/01/16 03:28:36;;;;;;;;;;;;;;;;;;5053410;28;2021;-38
2023/01/16 03:31:26;;;;;;;;;;;;;;;;;;5053478;28;1487;-38
2023/01/16 03:33:58;;;;;;;;;;;;;;;;;;5043488;28;1305;-37
2023/01/16 03:36:55;;;;;;;;;;;;;;;;;;5053284;28;1981;-38
2023/01/16 03:39:25;;;;;;;;;;;;;;;;;;5036525;28;1778;-39
2023/01/16 03:41:54;;;;;;;;;;;;;;;;;;5053214;28;1984;-37
2023/01/16 03:44:25;;;;;;;;;;;;;;;;;;5053280;28;1795;-38
2023/01/16 03:46:52;;;;;;;;;;;;;;;;;;5052976;28;1936;-39
2023/01/16 03:49:22;;;;;;;;;;;;;;;;;;5052439;28;1696;-37
2023/01/16 03:52:01;;;;;;;;;;;;;;;;;;5052912;28;1726;-38
2023/01/16 03:54:46;;;;;;;;;;;;;;;;;;5052996;28;2333;-37
2023/01/16 03:57:26;;;;;;;;;;;;;;;;;;5052949;28;1911;-38
2023/01/16 03:59:53;;;;;;;;;;;;;;;;;;5052846;28;2108;-38
2023/01/16 04:02:27;;;;;;;;;;;;;;;;;;5052733;28;1905;-38
2023/01/16 04:05:04;;;;;;;;;;;;;;;;;;5052799;28;1728;-38
2023/01/16 04:07:39;;;;;;;;;;;;;;;;;;5052476;28;1900;-37
2023/01/16 04:10:10;;;;;;;;;;;;;;;;;;5052710;28;1711;-38
2023/01/16 04:12:42;;;;;;;;;;;;;;;;;;5052352;28;1500;-38
2023/01/16 04:15:10;;;;;;;;;;;;;;;;;;5052665;28;2157;-38
2023/01/16 04:17:38;;;;;;;;;;;;;;;;;;5052652;28;1975;-38
2023/01/16 04:20:06;;;;;;;;;;;;;;;;;;5052485;28;2039;-37
2023/01/16 04:22:33;;;;;;;;;;;;;;;;;;5052422;28;1699;-38
2023/01/16 04:25:01;;;;;;;;;;;;;;;;;;5052175;28;1967;-37
2023/01/16 04:27:28;;;;;;;;;;;;;;;;;;5071352;28;2011;-37
2023/01/16 04:29:55;;;;;;;;;;;;;;;;;;5072159;28;1692;-38
2023/01/16 04:32:22;;;;;;;;;;;;;;;;;;5072054;28;2216;-38
2023/01/16 04:34:49;;;;;;;;;;;;;;;;;;5072208;28;1512;-38
2023/01/16 04:37:17;;;;;;;;;;;;;;;;;;5072230;28;2003;-38
2023/01/16 04:39:47;;;;;;;;;;;;;;;;;;5072102;28;1741;-38
2023/01/16 04:42:14;;;;;;;;;;;;;;;;;;5072165;28;1987;-37
2023/01/16 04:44:41;;;;;;;;;;;;;;;;;;5071921;28;2169;-38
2023/01/16 04:47:09;;;;;;;;;;;;;;;;;;5071915;28;2057;-38
2023/01/16 04:49:36;;;;;;;;;;;;;;;;;;5071746;28;1563;-37
2023/01/16 04:52:03;;;;;;;;;;;;;;;;;;5054120;28;1608;-38
2023/01/16 04:54:30;;;;;;;;;;;;;;;;;;5071631;28;1799;-37
2023/01/16 04:56:57;;;;;;;;;;;;;;;;;;5071744;28;1978;-39
2023/01/16 04:59:25;;;;;;;;;;;;;;;;;;5071890;28;1904;-37
2023/01/16 05:01:52;;;;;;;;;;;;;;;;;;5070758;28;1927;-37
2023/01/16 05:04:19;;;;;;;;;;;;;;;;;;5072254;28;1388;-38
2023/01/16 05:06:47;;;;;;;;;;;;;;;;;;5071367;28;1758;-37
2023/01/16 05:09:14;;;;;;;;;;;;;;;;;;5071474;28;1573;-38
2023/01/16 05:11:41;;;;;;;;;;;;;;;;;;5071518;28;1709;-37
2023/01/16 05:14:10;;;;;;;;;;;;;;;;;;5071515;28;1943;-37
2023/01/16 05:16:38;;;;;;;;;;;;;;;;;;5071485;28;2051;-37
2023/01/16 05:19:05;;;;;;;;;;;;;;;;;;5071322;28;2040;-37
2023/01/16 05:21:32;;;;;;;;;;;;;;;;;;5071350;28;1922;-37
2023/01/16 05:24:00;;;;;;;;;;;;;;;;;;5071277;28;1686;-37
2023/01/16 05:26:27;;;;;;;;;;;;;;;;;;5069056;28;1733;-37
2023/01/16 05:28:54;;;;;;;;;;;;;;;;;;5051436;28;1696;-38
2023/01/16 05:31:21;;;;;;;;;;;;;;;;;;5051186;28;1982;-38
2023/01/16 05:33:49;;;;;;;;;;;;;;;;;;5051479;28;2150;-38
2023/01/16 05:36:16;;;;;;;;;;;;;;;;;;5051120;28;1691;-37
2023/01/16 05:38:43;;;;;;;;;;;;;;;;;;5051131;28;1969;-37
2023/01/16 05:41:13;;;;;;;;;;;;;;;;;;5051025;28;1686;-38
2023/01/16 05:43:40;;;;;;;;;;;;;;;;;;5051058;28;1797;-37
2023/01/16 05:46:08;;;;;;;;;;;;;;;;;;5051039;28;1450;-38
2023/01/16 05:48:39;;;;;;;;;;;;;;;;;;5050869;28;2123;-37
2023/01/16 05:51:06;;;;;;;;;;;;;;;;;;5051183;28;1824;-37
2023/01/16 05:53:33;;;;;;;;;;;;;;;;;;5032998;28;2358;-38
2023/01/16 05:56:05;;;;;;;;;;;;;;;;;;5051022;28;1765;-38
2023/01/16 05:58:33;;;;;;;;;;;;;;;;;;5050852;28;2160;-37
2023/01/16 06:01:00;;;;;;;;;;;;;;;;;;5050794;28;1717;-39
2023/01/16 06:03:27;;;;;;;;;;;;;;;;;;5050757;28;1493;-38
2023/01/16 06:05:54;;;;;;;;;;;;;;;;;;5050893;28;1996;-37
2023/01/16 06:08:21;;;;;;;;;;;;;;;;;;5051121;28;2242;-36
2023/01/16 06:10:49;;;;;;;;;;;;;;;;;;5051149;28;1606;-38
2023/01/16 06:13:16;;;;;;;;;;;;;;;;;;5053239;28;2345;-37
2023/01/16 06:15:43;;;;;;;;;;;;;;;;;;5054827;28;1812;-38
2023/01/16 06:18:11;;;;;;;;;;;;;;;;;;5054010;28;1981;-38
2023/01/16 06:20:38;;;;;;;;;;;;;;;;;;5054639;28;1700;-37
2023/01/16 06:23:05;;;;;;;;;;;;;;;;;;5054639;28;1491;-38
2023/01/16 06:25:32;;;;;;;;;;;;;;;;;;5054522;28;2341;-37
2023/01/16 06:27:59;;;;;;;;;;;;;;;;;;5069223;28;1874;-38
2023/01/16 06:30:26;;;;;;;;;;;;;;;;;;5056804;28;1723;-38
2023/01/16 06:32:54;;;;;;;;;;;;;;;;;;5074463;28;1767;-38
2023/01/16 06:35:21;;;;;;;;;;;;;;;;;;5074610;28;1825;-38
2023/01/16 06:37:48;;;;;;;;;;;;;;;;;;5074241;28;1909;-38
2023/01/16 06:40:15;;;;;;;;;;;;;;;;;;5074288;28;1771;-38
2023/01/16 06:42:42;;;;;;;;;;;;;;;;;;5072283;28;1738;-37
2023/01/16 06:45:10;;;;;;;;;;;;;;;;;;5074108;28;2065;-38
2023/01/16 06:47:37;;;;;;;;;;;;;;;;;;5074130;28;1724;-38
2023/01/16 06:50:04;;;;;;;;;;;;;;;;;;5074263;28;1405;-37
2023/01/16 06:52:31;;;;;;;;;;;;;;;;;;5073438;28;1819;-38
2023/01/16 06:54:58;;;;;;;;;;;;;;;;;;5073023;28;1801;-38
2023/01/16 06:57:25;;;;;;;;;;;;;;;;;;5063948;28;1918;-38
2023/01/16 06:59:52;;;;;;;;;;;;;;;;;;5073959;28;2151;-39
2023/01/16 07:02:20;;;;;;;;;;;;;;;;;;5073860;28;1829;-38
2023/01/16 07:04:47;;;;;;;;;;;;;;;;;;5056463;28;1612;-38
2023/01/16 07:07:14;;;;;;;;;;;;;;;;;;5073869;28;1663;-38
2023/01/16 07:09:41;;;;;;;;;;;;;;;;;;5073627;28;1840;-40
2023/01/16 07:12:09;;;;;;;;;;;;;;;;;;5073651;28;2107;-39
2023/01/16 07:22:55;;;;;;;;;;;;;;;;;;5072921;28;1949;-38
2023/01/16 07:25:26;;;;;;;;;;;;;;;;;;5072315;28;1958;-38
2023/01/16 07:27:53;;;;;;;;;;;;;;;;;;5073341;28;2128;-38
2023/01/16 07:30:21;;;;;;;;;;;;;;;;;;5072776;28;2304;-38
2023/01/16 07:32:48;;;;;;;;;;;;;;;;;;5073013;28;1805;-38
2023/01/16 07:35:15;;;;;;;;;;;;;;;;;;5073380;28;1989;-38
2023/01/16 07:37:43;;;;;;;;;;;;;;;;;;5072435;28;1904;-38
2023/01/16 07:40:10;;;;;;;;;;;;;;;;;;5073152;28;1971;-40
2023/01/16 07:42:37;;;;;;;;;;;;;;;;;;5073019;28;1387;-39
2023/01/16 07:45:05;;;;;;;;;;;;;;;;;;5072136;28;2118;-38
2023/01/16 07:47:33;;;;;;;;;;;;;;;;;;5073132;28;1777;-39
2023/01/16 07:50:01;;;;;;;;;;;;;;;;;;5072836;28;2030;-40
2023/01/16 07:52:28;;;;;;;;;;;;;;;;;;5072645;28;2085;-38
2023/01/16 07:54:55;;;;;;;;;;;;;;;;;;5073443;28;1235;-38
2023/01/16 07:57:22;;;;;;;;;;;;;;;;;;5072734;28;1937;-38
2023/01/16 07:59:49;;;;;;;;;;;;;;;;;;5072208;28;1710;-38
2023/01/16 08:02:16;;;;;;;;;;;;;;;;;;5072653;28;1634;-37
2023/01/16 08:04:43;;;;;;;;;;;;;;;;;;5072679;28;1232;-38
2023/01/16 08:07:10;;;;;;;;;;;;;;;;;;5072183;28;2221;-37
2023/01/16 08:09:37;;;;;;;;;;;;;;;;;;5072586;28;2142;-39
2023/01/16 08:12:05;;;;;;;;;;;;;;;;;;5072524;28;2149;-38
2023/01/16 08:14:32;;;;;;;;;;;;;;;;;;5071819;28;1605;-44
2023/01/16 08:16:59;;;;;;;;;;;;;;;;;;5072342;28;1795;-38
2023/01/16 08:19:26;;;;;;;;;;;;;;;;;;5072472;28;2012;-38
2023/01/16 08:21:53;;;;;;;;;;;;;;;;;;5072440;28;1985;-38
2023/01/16 08:24:20;;;;;;;;;;;;;;;;;;5072184;28;1811;-38
2023/01/16 08:26:48;;;;;;;;;;;;;;;;;;5067084;28;1829;-37
2023/01/16 08:29:15;;;;;;;;;;;;;;;;;;5052151;28;1933;-38
2023/01/16 08:31:42;;;;;;;;;;;;;;;;;;5052141;28;1755;-39
2023/01/16 08:34:09;;;;;;;;;;;;;;;;;;5050287;28;1788;-38
2023/01/16 08:36:36;;;;;;;;;;;;;;;;;;5051921;28;2168;-38
2023/01/16 08:39:03;;;;;;;;;;;;;;;;;;5051020;28;1910;-39
2023/01/16 08:52:44;;;;;;;;;;;;;;;;;;5071580;28;1762;-36
2023/01/16 08:55:12;;;;;;;;;;;;;;;;;;5070539;28;1675;-37
2023/01/16 08:57:40;;;;;;;;;;;;;;;;;;5070613;28;2007;-36
2023/01/16 09:00:07;;;;;;;;;;;;;;;;;;5071355;28;2224;-37
2023/01/16 09:02:36;;;;;;;;;;;;;;;;;;5071322;28;1595;-36
2023/01/16 09:05:04;;;;;;;;;;;;;;;;;;5071450;28;1639;-37
2023/01/16 09:07:31;;;;;;;;;;;;;;;;;;5071641;28;2054;-38
2023/01/16 09:09:59;;;;;;;;;;;;;;;;;;5071374;28;2062;-36
2023/01/16 09:15:12;;;;;;;;;;;;;;;;;;5071332;28;1802;-38
2023/01/16 09:17:39;;;;;;;;;;;;;;;;;;5071140;28;1914;-38
2023/01/16 09:20:07;;;;;;;;;;;;;;;;;;5069923;28;2249;-37
2023/01/16 09:22:35;;;;;;;;;;;;;;;;;;5068018;28;1975;-40
2023/01/16 09:25:02;;;;;;;;;;;;;;;;;;5060625;28;1943;-39
2023/01/16 09:27:29;;;;;;;;;;;;;;;;;;5071177;28;1984;-38
2023/01/16 09:29:56;;;;;;;;;;;;;;;;;;5069751;28;1418;-38
2023/01/16 09:32:24;;;;;;;;;;;;;;;;;;5068795;28;1450;-38
2023/01/16 09:34:52;;;;;;;;;;;;;;;;;;5067946;28;2228;-38
2023/01/16 09:37:19;;;;;;;;;;;;;;;;;;5061410;28;1294;-38
2023/01/16 09:39:46;;;;;;;;;;;;;;;;;;5066009;28;2081;-38
2023/01/16 09:45:10;;;;;;;;;;;;;;;;;;5058754;28;1907;-37
2023/01/16 09:47:41;;;;;;;;;;;;;;;;;;5069255;28;1838;-39
2023/01/16 09:50:14;;;;;;;;;;;;;;;;;;5069633;28;1553;-38
2023/01/16 09:58:37;;;;;;;;;;;;;;;;;;5050321;28;1910;-38
2023/01/16 10:01:06;;;;;;;;;;;;;;;;;;5055322;28;1582;-38
2023/01/16 10:03:34;;;;;;;;;;;;;;;;;;5061974;28;2194;-38
2023/01/16 10:06:17;;;;;;;;;;;;;;;;;;5058748;28;1287;-38
2023/01/16 10:08:53;;;;;;;;;;;;;;;;;;5062316;28;2133;-37
2023/01/16 10:11:43;;;;;;;;;;;;;;;;;;5066215;28;1632;-37
2023/01/16 10:14:17;;;;;;;;;;;;;;;;;;5052525;28;1753;-37
2023/01/16 10:16:49;;;;;;;;;;;;;;;;;;5070400;28;1736;-39
2023/01/16 10:19:42;;;;;;;;;;;;;;;;;;5052044;28;1924;-38
2023/01/16 10:22:12;;;;;;;;;;;;;;;;;;5064595;28;1633;-38
2023/01/16 10:24:58;;;;;;;;;;;;;;;;;;5058287;28;1994;-38
2023/01/16 10:27:36;;;;;;;;;;;;;;;;;;5049640;28;2542;-38
2023/01/16 10:30:03;;;;;;;;;;;;;;;;;;5062745;28;1742;-36
2023/01/16 10:32:46;;;;;;;;;;;;;;;;;;5058853;28;1786;-37
2023/01/16 10:35:32;;;;;;;;;;;;;;;;;;5061479;28;1466;-36
2023/01/16 10:38:15;;;;;;;;;;;;;;;;;;5050152;28;1993;-36
2023/01/16 10:40:44;;;;;;;;;;;;;;;;;;5066302;28;1801;-37
2023/01/16 10:49:26;;;;;;;;;;;;;;;;;;5066230;28;1499;-37
2023/01/16 10:51:58;;;;;;;;;;;;;;;;;;5069035;28;1601;-37
2023/01/16 10:54:25;;;;;;;;;;;;;;;;;;5070135;28;1826;-38
2023/01/16 10:56:52;;;;;;;;;;;;;;;;;;5069867;28;1922;-38
2023/01/16 10:59:20;;;;;;;;;;;;;;;;;;5071035;28;1954;-37
2023/01/16 11:01:48;;;;;;;;;;;;;;;;;;5065237;28;2070;-38
2023/01/16 11:04:17;;;;;;;;;;;;;;;;;;5073474;28;2092;-37
2023/01/16 11:06:50;;;;;;;;;;;;;;;;;;5071926;28;1270;-39
2023/01/16 11:09:18;;;;;;;;;;;;;;;;;;5073526;28;1578;-40
2023/01/16 11:20:10;;;;;;;;;;;;;;;;;;5073384;28;2053;-39
2023/01/16 11:22:39;;;;;;;;;;;;;;;;;;5073338;28;1531;-38
2023/01/16 11:25:09;;;;;;;;;;;;;;;;;;5073459;28;1640;-38
2023/01/16 11:27:37;;;;;;;;;;;;;;;;;;5070200;28;2124;-39
2023/01/16 11:30:10;;;;;;;;;;;;;;;;;;5073294;28;2135;-39
2023/01/16 11:32:47;;;;;;;;;;;;;;;;;;5073310;28;1922;-38
2023/01/16 11:35:15;;;;;;;;;;;;;;;;;;5061609;28;1726;-38
2023/01/16 11:37:44;;;;;;;;;;;;;;;;;;5070423;28;1860;-38
2023/01/16 11:40:19;;;;;;;;;;;;;;;;;;5073138;28;1945;-38
2023/01/16 11:48:48;;;;;;;;;;;;;;;;;;5052344;28;1839;-38
2023/01/16 11:51:17;;;;;;;;;;;;;;;;;;5033648;28;1918;-38
2023/01/16 11:53:45;;;;;;;;;;;;;;;;;;5052767;28;1951;-38
2023/01/16 11:56:24;;;;;;;;;;;;;;;;;;5051825;28;1550;-39
2023/01/16 11:59:10;;;;;;;;;;;;;;;;;;5054589;28;1974;-40
2023/01/16 12:04:32;;;;;;;;;;;;;;;;;;5072773;28;1315;-54
2023/01/16 12:07:00;;;;;;;;;;;;;;;;;;5072642;28;1491;-56
2023/01/16 12:09:36;;;;;;;;;;;;;;;;;;5072638;28;1987;-55
2023/01/16 12:15:05;;;;;;;;;;;;;;;;;;5072310;28;1055;-60
2023/01/16 12:17:42;;;;;;;;;;;;;;;;;;5072509;28;1832;-43
2023/01/16 12:20:12;;;;;;;;;;;;;;;;;;5072300;28;2060;-43
2023/01/16 12:22:49;;;;;;;;;;;;;;;;;;5072686;28;1976;-40
2023/01/16 12:25:22;;;;;;;;;;;;;;;;;;5072298;28;2071;-42
2023/01/16 12:28:08;;;;;;;;;;;;;;;;;;5072256;28;2029;-42
2023/01/16 12:31:35;;;;;;;;;;;;;;;;;;5071850;28;2269;-41
2023/01/16 12:34:09;;;;;;;;;;;;;;;;;;4990775;28;1738;-42
2023/01/16 12:36:42;;;;;;;;;;;;;;;;;;4977018;28;1789;-39
2023/01/16 12:39:28;;;;;;;;;;;;;;;;;;5029619;28;2026;-41
2023/01/16 12:45:11;;;;;;;;;;;;;;;;;;5067338;28;1819;-42
2023/01/16 12:47:38;;;;;;;;;;;;;;;;;;5072086;28;1843;-42
2023/01/16 12:50:08;;;;;;;;;;;;;;;;;;5071725;28;1651;-38
2023/01/16 12:52:57;;;;;;;;;;;;;;;;;;5071615;28;1674;-40
2023/01/16 12:55:27;;;;;;;;;;;;;;;;;;5071454;28;2033;-41
2023/01/16 12:58:21;;;;;;;;;;;;;;;;;;5064577;28;1691;-40
2023/01/16 13:00:48;;;;;;;;;;;;;;;;;;5065898;28;1800;-41
2023/01/16 13:03:21;;;;;;;;;;;;;;;;;;5049821;28;1771;-39
2023/01/16 13:05:49;;;;;;;;;;;;;;;;;;5060033;28;1751;-42
2023/01/16 13:08:23;;;;;;;;;;;;;;;;;;5071166;28;1836;-38
2023/01/16 13:14:10;;;;;;;;;;;;;;;;;;5071470;28;1985;-37
2023/01/16 13:16:48;;;;;;;;;;;;;;;;;;5055636;28;1362;-42
2023/01/16 13:19:23;;;;;;;;;;;;;;;;;;5071253;28;1973;-41
2023/01/16 13:21:55;;;;;;;;;;;;;;;;;;5070501;28;2182;-42
2023/01/16 13:24:26;;;;;;;;;;;;;;;;;;5071390;28;2310;-42
2023/01/16 13:26:57;;;;;;;;;;;;;;;;;;5064966;28;1774;-42
2023/01/16 13:29:28;;;;;;;;;;;;;;;;;;5050649;28;1752;-39
2023/01/16 13:31:57;;;;;;;;;;;;;;;;;;5050755;28;1915;-41
2023/01/16 13:34:48;;;;;;;;;;;;;;;;;;5050984;28;1501;-42
2023/01/16 13:37:22;;;;;;;;;;;;;;;;;;5050883;28;2184;-40
2023/01/16 13:40:05;;;;;;;;;;;;;;;;;;5051072;28;2046;-41
2023/01/16 13:42:33;;;;;;;;;;;;;;;;;;5051190;28;2133;-41
2023/01/16 13:47:56;;;;;;;;;;;;;;;;;;5033133;28;2349;-41
2023/01/16 13:50:25;;;;;;;;;;;;;;;;;;5051081;28;2143;-41
2023/01/16 13:53:02;;;;;;;;;;;;;;;;;;5051039;28;1771;-43
2023/01/16 13:55:32;;;;;;;;;;;;;;;;;;5049875;28;1823;-42
2023/01/16 13:58:08;;;;;;;;;;;;;;;;;;5050900;28;1827;-41
2023/01/16 14:00:36;;;;;;;;;;;;;;;;;;5050867;28;2095;-40
2023/01/16 14:03:03;;;;;;;;;;;;;;;;;;5050898;28;1983;-40
2023/01/16 14:05:36;;;;;;;;;;;;;;;;;;5050811;28;1727;-42
2023/01/16 14:10:58;;;;;;;;;;;;;;;;;;5050829;28;1889;-41
2023/01/16 14:13:38;;;;;;;;;;;;;;;;;;5050869;28;2177;-42
2023/01/16 14:16:30;;;;;;;;;;;;;;;;;;5050662;28;1963;-41
2023/01/16 14:19:02;;;;;;;;;;;;;;;;;;5050509;28;2002;-42
2023/01/16 14:21:38;;;;;;;;;;;;;;;;;;5050772;28;1659;-41
2023/01/16 14:24:09;;;;;;;;;;;;;;;;;;5050659;28;2248;-40
2023/01/16 14:26:49;;;;;;;;;;;;;;;;;;5054063;28;2021;-41
2023/01/16 14:29:17;;;;;;;;;;;;;;;;;;5069284;28;2085;-41
2023/01/16 14:31:50;;;;;;;;;;;;;;;;;;5068766;28;1923;-41
2023/01/16 14:34:20;;;;;;;;;;;;;;;;;;5071221;28;1954;-43
2023/01/16 14:36:52;;;;;;;;;;;;;;;;;;5072593;28;1640;-40
2023/01/16 14:39:46;;;;;;;;;;;;;;;;;;5072300;28;2161;-42
2023/01/16 14:57:01;;;;;;;;;;;;;;;;;;5072073;28;2173;-41
2023/01/16 14:59:35;;;;;;;;;;;;;;;;;;5073807;28;1976;-42
2023/01/16 15:02:18;;;;;;;;;;;;;;;;;;5061426;28;1980;-40
2023/01/16 15:04:52;;;;;;;;;;;;;;;;;;5065798;28;1986;-41
2023/01/16 15:07:24;;;;;;;;;;;;;;;;;;5067881;28;2222;-40
2023/01/16 15:09:52;;;;;;;;;;;;;;;;;;5066087;28;1759;-41
2023/01/16 15:12:19;;;;;;;;;;;;;;;;;;5061809;28;1804;-40
2023/01/16 15:14:54;;;;;;;;;;;;;;;;;;5070807;28;1420;-44
2023/01/16 15:22:58;;;;;;;;;;;;;;;;;;5073438;28;1731;-43
2023/01/16 15:25:41;;;;;;;;;;;;;;;;;;5058373;28;2008;-40
2023/01/16 15:28:32;;;;;;;;;;;;;;;;;;5064977;28;1985;-42
2023/01/16 15:31:01;;;;;;;;;;;;;;;;;;5061538;28;1733;-41
2023/01/16 15:36:14;;;;;;;;;;;;;;;;;;5050884;28;1756;-43
2023/01/16 15:38:47;;;;;;;;;;;;;;;;;;5067198;28;2255;-41
2023/01/16 15:41:17;;;;;;;;;;;;;;;;;;5053227;28;1961;-41
2023/01/16 15:46:45;;;;;;;;;;;;;;;;;;5072604;28;1917;-40
2023/01/16 15:49:20;;;;;;;;;;;;;;;;;;5059632;28;2108;-42
2023/01/16 15:51:57;;;;;;;;;;;;;;;;;;5069661;28;1593;-40
2023/01/16 15:54:25;;;;;;;;;;;;;;;;;;5071048;28;1624;-41
2023/01/16 15:56:52;;;;;;;;;;;;;;;;;;5071059;28;1681;-41
2023/01/16 15:59:27;;;;;;;;;;;;;;;;;;5071178;28;1973;-42
2023/01/16 16:02:07;;;;;;;;;;;;;;;;;;5072703;28;2001;-40
2023/01/16 16:04:35;;;;;;;;;;;;;;;;;;5071147;28;1925;-41
2023/01/16 16:07:02;;;;;;;;;;;;;;;;;;5072585;28;1815;-40
2023/01/16 16:09:29;;;;;;;;;;;;;;;;;;5058475;28;1982;-40
2023/01/16 16:12:02;;;;;;;;;;;;;;;;;;5072602;28;2130;-39
2023/01/16 16:17:55;;;;;;;;;;;;;;;;;;5066759;28;1889;-40
2023/01/16 16:20:39;;;;;;;;;;;;;;;;;;5060406;28;1914;-41
2023/01/16 16:23:09;;;;;;;;;;;;;;;;;;5072254;28;1720;-40
2023/01/16 16:25:40;;;;;;;;;;;;;;;;;;5072118;28;1723;-41
2023/01/16 16:28:38;;;;;;;;;;;;;;;;;;5071670;28;2246;-41
2023/01/16 16:31:12;;;;;;;;;;;;;;;;;;5071102;28;1700;-41
2023/01/16 16:33:43;;;;;;;;;;;;;;;;;;5072025;28;1918;-41
2023/01/16 16:36:14;;;;;;;;;;;;;;;;;;5071622;28;1859;-42
2023/01/16 16:38:45;;;;;;;;;;;;;;;;;;5052014;28;1853;-39
2023/01/16 16:41:13;;;;;;;;;;;;;;;;;;5060545;28;1914;-41
2023/01/16 16:43:49;;;;;;;;;;;;;;;;;;5071954;28;1888;-40
2023/01/16 16:46:22;;;;;;;;;;;;;;;;;;5071873;28;1786;-41
2023/01/16 16:49:07;;;;;;;;;;;;;;;;;;5071646;28;1782;-40
2023/01/16 16:51:35;;;;;;;;;;;;;;;;;;5071811;28;1739;-41
2023/01/16 16:54:08;;;;;;;;;;;;;;;;;;5071625;28;2088;-41
2023/01/16 16:56:42;;;;;;;;;;;;;;;;;;5071749;28;2156;-41
2023/01/16 16:59:37;;;;;;;;;;;;;;;;;;5071558;28;2100;-41
2023/01/16 17:02:07;;;;;;;;;;;;;;;;;;5055954;28;1508;-42
2023/01/16 17:04:34;;;;;;;;;;;;;;;;;;5071762;28;1959;-40
2023/01/16 17:07:02;;;;;;;;;;;;;;;;;;5053067;28;1764;-40
2023/01/16 17:09:31;;;;;;;;;;;;;;;;;;5051528;28;1574;-41
2023/01/16 17:12:20;;;;;;;;;;;;;;;;;;5068099;28;1868;-40
2023/01/16 17:14:48;;;;;;;;;;;;;;;;;;5053669;28;2233;-40
2023/01/16 17:17:17;;;;;;;;;;;;;;;;;;5057301;28;1729;-43
2023/01/16 17:19:45;;;;;;;;;;;;;;;;;;5064798;28;2132;-40
2023/01/16 17:22:12;;;;;;;;;;;;;;;;;;5071275;28;1840;-40
2023/01/16 17:24:39;;;;;;;;;;;;;;;;;;5071289;28;1673;-42
2023/01/16 17:27:09;;;;;;;;;;;;;;;;;;5063647;28;1970;-42
2023/01/16 17:29:42;;;;;;;;;;;;;;;;;;5041174;28;1874;-42
2023/01/16 17:32:23;;;;;;;;;;;;;;;;;;5054246;28;1636;-41
2023/01/16 17:34:51;;;;;;;;;;;;;;;;;;5071042;28;1841;-41
2023/01/16 17:37:18;;;;;;;;;;;;;;;;;;5071246;28;2111;-41
2023/01/16 17:39:45;;;;;;;;;;;;;;;;;;5071023;28;1904;-42
2023/01/16 17:47:27;;;;;;;;;;;;;;;;;;5070895;28;1918;-42
2023/01/16 17:52:54;;;;;;;;;;;;;;;;;;5040938;28;2064;-39
2023/01/16 17:58:07;;;;;;;;;;;;;;;;;;5070944;28;1802;-40
2023/01/16 18:00:35;;;;;;;;;;;;;;;;;;5053187;28;2036;-42
2023/01/16 18:03:04;;;;;;;;;;;;;;;;;;5070830;28;2235;-40
2023/01/16 18:05:31;;;;;;;;;;;;;;;;;;5071188;28;2037;-40
2023/01/16 18:07:59;;;;;;;;;;;;;;;;;;5071345;28;1718;-41
2023/01/16 18:10:26;;;;;;;;;;;;;;;;;;5074811;28;2074;-40
2023/01/16 18:18:25;;;;;;;;;;;;;;;;;;5073369;28;2012;-40
2023/01/16 18:21:59;;;;;;;;;;;;;;;;;;5073514;28;1906;-41
2023/01/16 18:23:39;;;;;;;;;;;;;;;;;;5074877;28;1823;-41
2023/01/16 18:26:06;;;;;;;;;;;;;;;;;;5074767;28;1912;-40
2023/01/16 18:28:36;;;;;;;;;;;;;;;;;;5067118;28;1869;-40
2023/01/16 18:31:04;;;;;;;;;;;;;;;;;;5074469;28;1680;-40
2023/01/16 18:33:34;;;;;;;;;;;;;;;;;;5074573;28;1270;-41
2023/01/16 18:36:04;;;;;;;;;;;;;;;;;;5074606;28;1773;-45
2023/01/16 19:03:28;;;;;;;;;;;;;;;;;;5054242;28;1851;-41
2023/01/16 19:05:56;;;;;;;;;;;;;;;;;;5054068;28;1832;-40
2023/01/16 19:08:24;;;;;;;;;;;;;;;;;;5053832;28;1324;-40
2023/01/16 19:10:52;;;;;;;;;;;;;;;;;;5067145;28;1871;-40
2023/01/16 19:13:20;;;;;;;;;;;;;;;;;;5073841;28;1766;-41
2023/01/16 19:18:33;;;;;;;;;;;;;;;;;;5055724;28;1310;-40
2023/01/16 19:21:01;;;;;;;;;;;;;;;;;;5072139;28;1983;-40
2023/01/16 19:23:28;;;;;;;;;;;;;;;;;;5073578;28;1826;-40
2023/01/16 19:25:55;;;;;;;;;;;;;;;;;;5052145;28;2291;-40
2023/01/16 19:28:24;;;;;;;;;;;;;;;;;;5071728;28;2199;-41
2023/01/16 19:30:51;;;;;;;;;;;;;;;;;;5073505;28;2117;-40
2023/01/16 19:33:20;;;;;;;;;;;;;;;;;;5070418;28;1701;-41
2023/01/16 19:35:47;;;;;;;;;;;;;;;;;;5073288;28;1987;-41
2023/01/16 19:38:14;;;;;;;;;;;;;;;;;;5073262;28;1612;-40
2023/01/16 19:40:41;;;;;;;;;;;;;;;;;;5073114;28;2003;-40
2023/01/16 19:46:41;;;;;;;;;;;;;;;;;;5071385;28;1657;-41
2023/01/16 19:48:58;;;;;;;;;;;;;;;;;;5045958;28;1962;-40
2023/01/16 19:51:25;;;;;;;;;;;;;;;;;;5072233;28;1834;-40
2023/01/16 19:53:53;;;;;;;;;;;;;;;;;;5072968;28;1772;-40
2023/01/16 19:56:24;;;;;;;;;;;;;;;;;;5072973;28;1414;-41
2023/01/16 19:58:51;;;;;;;;;;;;;;;;;;5071153;28;1829;-41